createdAt,value
2023-05-16T00:02:18.999Z,7.47
2023-05-16T00:04:46.227Z,7.20
2023-05-16T00:07:12.780Z,7.37
2023-05-16T00:09:39.659Z,7.10
2023-05-16T00:12:06.367Z,7.13
2023-05-16T00:14:33.148Z,7.33
2023-05-16T00:16:59.783Z,7.37
2023-05-16T00:19:27.719Z,7.43
2023-05-16T00:21:54.242Z,7.43
2023-05-16T00:24:20.761Z,7.73
2023-05-16T00:26:47.320Z,7.40
2023-05-16T00:29:14.751Z,7.17
2023-05-16T00:31:41.451Z,7.00
2023-05-16T00:34:08.340Z,7.60
2023-05-16T00:36:35.899Z,7.20
2023-05-16T00:39:02.973Z,7.37
2023-05-16T00:41:29.522Z,7.43
2023-05-16T00:43:56.091Z,7.23
2023-05-16T00:46:22.694Z,7.80
2023-05-16T00:48:49.327Z,7.67
2023-05-16T00:51:16.214Z,7.60
2023-05-16T00:53:43.190Z,7.17
2023-05-16T00:56:10.258Z,7.40
2023-05-16T00:58:37.121Z,7.50
2023-05-16T01:01:05.248Z,7.40
2023-05-16T01:03:32.213Z,7.53
2023-05-16T01:05:59.836Z,7.30
2023-05-16T01:08:26.367Z,7.17
2023-05-16T01:11:11.451Z,7.30
2023-05-16T01:13:43.789Z,7.77
2023-05-16T01:16:13.746Z,7.83
2023-05-16T01:18:59.580Z,7.70
2023-05-16T01:21:42.128Z,8.00
2023-05-16T01:24:22.712Z,8.13
2023-05-16T01:26:50.000Z,7.77
2023-05-16T01:29:16.895Z,7.57
2023-05-16T01:31:43.479Z,7.47
2023-05-16T01:34:10.053Z,7.37
2023-05-16T01:36:42.843Z,8.07
2023-05-16T01:39:30.502Z,7.90
2023-05-16T01:42:12.296Z,7.97
2023-05-16T01:44:49.075Z,7.93
2023-05-16T01:47:17.288Z,7.97
2023-05-16T01:49:49.864Z,7.47
2023-05-16T01:52:20.160Z,8.13
2023-05-16T01:54:48.165Z,7.97
2023-05-16T01:57:15.838Z,8.10
2023-05-16T01:59:44.171Z,8.03
2023-05-16T02:02:10.901Z,8.00
2023-05-16T02:04:38.247Z,8.20
2023-05-16T02:07:05.710Z,8.30
2023-05-16T02:09:32.313Z,7.83
2023-05-16T02:12:00.461Z,7.93
2023-05-16T02:14:27.159Z,8.13
2023-05-16T02:16:53.889Z,7.77
2023-05-16T02:19:20.833Z,8.23
2023-05-16T02:21:47.572Z,7.60
2023-05-16T02:24:14.149Z,7.80
2023-05-16T02:26:40.804Z,7.87
2023-05-16T02:29:07.414Z,7.63
2023-05-16T02:31:34.978Z,7.60
2023-05-16T02:34:02.316Z,8.00
2023-05-16T02:36:29.076Z,7.50
2023-05-16T02:38:55.640Z,7.80
2023-05-16T02:41:22.508Z,7.67
2023-05-16T02:43:49.700Z,7.57
2023-05-16T02:46:27.372Z,7.50
2023-05-16T02:48:54.608Z,7.80
2023-05-16T02:51:22.059Z,8.53
2023-05-16T02:53:48.874Z,7.73
2023-05-16T02:56:16.100Z,7.97
2023-05-16T02:58:43.032Z,7.93
2023-05-16T03:01:09.923Z,7.70
2023-05-16T03:03:37.573Z,9.10
2023-05-16T03:06:04.312Z,9.37
2023-05-16T03:08:32.645Z,9.03
2023-05-16T03:10:59.321Z,9.93
2023-05-16T03:13:26.104Z,9.37
2023-05-16T03:15:52.722Z,9.50
2023-05-16T03:18:19.312Z,9.67
2023-05-16T03:20:45.986Z,10.60
2023-05-16T03:23:12.748Z,10.07
2023-05-16T03:25:39.325Z,10.17
2023-05-16T03:28:07.403Z,10.00
2023-05-16T03:30:34.348Z,11.70
2023-05-16T03:33:01.095Z,10.97
2023-05-16T03:35:28.728Z,10.63
2023-05-16T03:37:55.788Z,11.90
2023-05-16T03:40:22.376Z,11.80
2023-05-16T03:42:48.969Z,11.67
2023-05-16T03:45:15.694Z,12.17
2023-05-16T03:47:42.768Z,11.87
2023-05-16T03:50:10.015Z,12.47
2023-05-16T03:52:36.865Z,12.03
2023-05-16T03:55:04.217Z,12.23
2023-05-16T03:57:31.684Z,12.00
2023-05-16T03:59:58.266Z,12.53
2023-05-16T04:02:25.154Z,11.93
2023-05-16T04:04:51.763Z,12.67
2023-05-16T04:07:18.297Z,12.83
2023-05-16T04:09:45.185Z,13.50
2023-05-16T04:12:11.731Z,12.93
2023-05-16T04:14:38.251Z,12.10
2023-05-16T04:17:05.243Z,12.80
2023-05-16T04:19:31.903Z,13.63
2023-05-16T04:21:58.460Z,12.77
2023-05-16T04:24:26.612Z,12.80
2023-05-16T04:26:53.182Z,14.10
2023-05-16T04:29:19.732Z,14.63
2023-05-16T04:31:46.352Z,13.87
2023-05-16T04:34:13.275Z,14.17
2023-05-16T04:36:40.380Z,13.70
2023-05-16T04:39:07.481Z,13.73
2023-05-16T04:41:35.144Z,13.40
2023-05-16T04:44:04.211Z,13.73
2023-05-16T04:46:31.093Z,13.37
2023-05-16T04:48:57.681Z,14.60
2023-05-16T04:51:24.459Z,13.40
2023-05-16T04:53:51.014Z,13.63
2023-05-16T04:56:17.812Z,14.17
2023-05-16T04:58:44.338Z,13.90
2023-05-16T05:01:11.502Z,14.60
2023-05-16T05:03:38.123Z,14.20
2023-05-16T05:06:04.793Z,13.40
2023-05-16T05:08:31.360Z,15.33
2023-05-16T05:10:57.897Z,13.97
2023-05-16T05:13:24.453Z,15.23
2023-05-16T05:15:52.411Z,14.17
2023-05-16T05:18:19.115Z,13.30
2023-05-16T05:20:45.767Z,15.00
2023-05-16T05:23:12.418Z,13.60
2023-05-16T05:25:39.307Z,14.77
2023-05-16T05:28:06.138Z,14.60
2023-05-16T05:30:32.695Z,14.90
2023-05-16T05:32:59.380Z,14.83
2023-05-16T05:35:26.298Z,15.10
2023-05-16T05:37:53.191Z,15.70
2023-05-16T05:40:19.732Z,14.90
2023-05-16T05:42:47.279Z,15.53
2023-05-16T05:45:14.940Z,15.40
2023-05-16T05:47:41.818Z,15.30
2023-05-16T05:50:08.978Z,15.83
2023-05-16T05:52:35.594Z,14.33
2023-05-16T05:55:02.107Z,15.40
2023-05-16T05:57:28.673Z,16.10
2023-05-16T05:59:55.316Z,16.13
2023-05-16T06:02:22.112Z,15.00
2023-05-16T06:04:48.685Z,14.80
2023-05-16T06:07:16.140Z,14.63
2023-05-16T06:09:43.640Z,15.87
2023-05-16T06:12:10.205Z,14.60
2023-05-16T06:14:36.736Z,14.27
2023-05-16T06:17:03.486Z,14.63
2023-05-16T06:19:30.156Z,14.03
2023-05-16T06:21:56.703Z,15.07
2023-05-16T06:24:23.244Z,15.40
2023-05-16T06:26:50.776Z,15.30
2023-05-16T06:29:17.449Z,13.87
2023-05-16T06:31:44.553Z,14.80
2023-05-16T06:34:11.274Z,13.67
2023-05-16T06:36:37.801Z,14.43
2023-05-16T06:39:05.022Z,14.30
2023-05-16T06:41:31.533Z,14.40
2023-05-16T06:43:58.218Z,14.43
2023-05-16T06:46:24.892Z,14.80
2023-05-16T06:48:51.526Z,13.43
2023-05-16T06:51:18.134Z,13.83
2023-05-16T06:53:44.855Z,13.83
2023-05-16T06:56:11.484Z,15.07
2023-05-16T06:58:38.117Z,14.80
2023-05-16T07:01:04.814Z,15.07
2023-05-16T07:03:32.179Z,17.90
2023-05-16T07:05:58.993Z,13.97
2023-05-16T07:08:26.158Z,15.73
2023-05-16T07:10:52.820Z,15.43
2023-05-16T07:13:19.416Z,15.80
2023-05-16T07:15:46.122Z,16.77
2023-05-16T07:18:12.758Z,15.20
2023-05-16T07:20:39.371Z,14.30
2023-05-16T07:23:06.545Z,14.63
2023-05-16T07:25:33.250Z,12.73
2023-05-16T07:28:01.005Z,13.93
2023-05-16T07:30:27.749Z,14.27
2023-05-16T07:32:54.399Z,13.70
2023-05-16T07:35:21.135Z,14.20
2023-05-16T07:37:47.878Z,13.97
2023-05-16T07:40:14.904Z,13.20
2023-05-16T07:42:41.542Z,13.57
2023-05-16T07:45:08.433Z,13.23
2023-05-16T07:47:35.576Z,12.43
2023-05-16T07:50:02.563Z,12.23
2023-05-16T07:52:29.193Z,12.43
2023-05-16T07:54:56.056Z,12.77
2023-05-16T07:57:24.759Z,12.73
2023-05-16T07:59:52.477Z,11.47
2023-05-16T08:02:19.460Z,12.30
2023-05-16T08:04:46.934Z,13.33
2023-05-16T08:07:13.677Z,11.63
2023-05-16T08:09:40.309Z,11.10
2023-05-16T08:12:07.279Z,11.37
2023-05-16T08:14:33.981Z,11.30
2023-05-16T08:17:00.978Z,11.23
2023-05-16T08:19:28.070Z,11.13
2023-05-16T08:21:55.041Z,10.77
2023-05-16T08:24:21.627Z,11.63
2023-05-16T08:26:48.272Z,10.70
2023-05-16T08:29:14.994Z,11.00
2023-05-16T08:31:41.684Z,10.70
2023-05-16T08:34:09.469Z,11.00
2023-05-16T08:36:39.138Z,10.43
2023-05-16T08:39:05.796Z,10.90
2023-05-16T08:41:32.403Z,10.43
2023-05-16T08:43:59.140Z,10.33
2023-05-16T08:46:26.547Z,9.90
2023-05-16T08:48:53.718Z,10.40
2023-05-16T08:51:20.975Z,10.60
2023-05-16T08:54:23.085Z,10.80
2023-05-16T08:56:50.621Z,10.90
2023-05-16T08:59:17.669Z,10.57
2023-05-16T09:01:44.454Z,11.20
2023-05-16T09:04:11.420Z,11.93
2023-05-16T09:06:38.418Z,13.20
2023-05-16T09:09:07.984Z,11.57
2023-05-16T09:11:36.917Z,11.30
2023-05-16T09:14:04.604Z,11.50
2023-05-16T09:16:31.454Z,11.03
2023-05-16T09:19:00.054Z,10.53
2023-05-16T09:21:28.023Z,10.47
2023-05-16T09:23:55.079Z,20.23
2023-05-16T09:26:22.736Z,16.47
2023-05-16T09:28:49.362Z,12.53
2023-05-16T09:31:26.831Z,11.57
2023-05-16T09:33:54.012Z,11.13
2023-05-16T09:36:20.680Z,13.27
2023-05-16T09:38:47.291Z,12.50
2023-05-16T09:41:13.944Z,12.30
2023-05-16T09:43:42.014Z,11.90
2023-05-16T09:46:09.024Z,11.17
2023-05-16T09:48:36.342Z,11.30
2023-05-16T09:51:05.723Z,10.27
2023-05-16T09:53:33.304Z,9.80
2023-05-16T09:56:01.139Z,9.47
2023-05-16T09:58:35.046Z,9.90
2023-05-16T10:01:02.423Z,14.40
2023-05-16T10:03:29.401Z,12.40
2023-05-16T10:05:56.279Z,9.10
2023-05-16T10:08:23.982Z,9.13
2023-05-16T10:10:51.659Z,9.17
2023-05-16T10:13:22.496Z,8.87
2023-05-16T10:15:55.560Z,10.73
2023-05-16T10:18:23.078Z,9.17
2023-05-16T10:20:52.400Z,8.17
2023-05-16T10:23:21.266Z,8.33
2023-05-16T10:25:48.953Z,8.27
2023-05-16T10:28:16.468Z,14.13
2023-05-16T10:30:44.376Z,9.03
2023-05-16T10:33:12.380Z,8.17
2023-05-16T10:35:39.322Z,8.10
2023-05-16T10:38:08.150Z,7.87
2023-05-16T10:40:35.958Z,10.50
2023-05-16T10:43:03.949Z,10.30
2023-05-16T10:45:31.406Z,10.03
2023-05-16T10:47:59.507Z,8.07
2023-05-16T10:50:32.579Z,7.93
2023-05-16T10:53:11.678Z,7.30
2023-05-16T10:55:44.638Z,7.43
2023-05-16T10:58:11.237Z,8.47
2023-05-16T11:00:39.350Z,7.83
2023-05-16T11:03:06.710Z,11.37
2023-05-16T11:05:34.464Z,11.03
2023-05-16T11:08:05.746Z,7.70
2023-05-16T11:10:32.731Z,8.13
2023-05-16T11:13:07.851Z,7.40
2023-05-16T11:15:37.801Z,7.77
2023-05-16T11:18:06.602Z,7.47
2023-05-16T11:20:34.489Z,7.07
2023-05-16T11:23:20.731Z,7.43
2023-05-16T11:25:57.472Z,6.77
2023-05-16T11:28:25.151Z,7.13
2023-05-16T11:30:55.214Z,6.80
2023-05-16T11:33:22.385Z,6.63
2023-05-16T11:36:15.282Z,6.17
2023-05-16T11:38:43.860Z,8.30
2023-05-16T11:41:11.583Z,7.13
2023-05-16T11:43:42.191Z,6.50
2023-05-16T11:46:15.419Z,7.10
2023-05-16T11:48:42.238Z,6.47
2023-05-16T11:51:10.845Z,6.50
2023-05-16T11:53:38.421Z,6.47
2023-05-16T11:56:07.195Z,6.47
2023-05-16T11:58:33.829Z,6.47
2023-05-16T12:01:00.439Z,7.87
2023-05-16T12:03:27.210Z,6.60
2023-05-16T12:05:54.563Z,6.67
2023-05-16T12:08:29.286Z,6.50
2023-05-16T12:10:56.282Z,7.57
2023-05-16T12:13:24.031Z,6.63
2023-05-16T12:15:51.397Z,7.17
2023-05-16T12:18:18.250Z,6.80
2023-05-16T12:20:45.126Z,6.33
2023-05-16T12:23:12.716Z,6.17
2023-05-16T12:25:46.324Z,6.07
2023-05-16T12:28:13.853Z,6.70
2023-05-16T12:30:44.351Z,6.63
2023-05-16T12:33:12.819Z,5.87
2023-05-16T12:35:40.828Z,6.20
2023-05-16T12:38:11.745Z,8.03
2023-05-16T12:40:39.651Z,6.70
2023-05-16T12:43:15.511Z,6.10
2023-05-16T12:45:43.291Z,5.70
2023-05-16T12:48:14.273Z,5.77
2023-05-16T12:50:41.826Z,5.87
2023-05-16T12:53:12.931Z,6.23
2023-05-16T12:55:39.580Z,5.70
2023-05-16T12:58:06.172Z,5.60
2023-05-16T13:00:32.840Z,5.43
2023-05-16T13:02:59.635Z,5.47
2023-05-16T13:05:26.315Z,5.23
2023-05-16T13:07:53.115Z,5.63
2023-05-16T13:10:19.736Z,4.90
2023-05-16T13:12:47.348Z,4.97
2023-05-16T13:15:14.612Z,5.20
2023-05-16T13:17:44.151Z,4.60
2023-05-16T13:20:13.787Z,4.23
2023-05-16T13:22:43.971Z,4.37
2023-05-16T13:25:11.067Z,4.73
2023-05-16T13:27:37.814Z,4.30
2023-05-16T13:30:04.804Z,4.47
2023-05-16T13:32:31.677Z,4.37
2023-05-16T13:34:58.284Z,4.10
2023-05-16T13:37:24.867Z,3.93
2023-05-16T13:39:51.582Z,3.83
2023-05-16T13:42:18.191Z,4.97
2023-05-16T13:44:44.985Z,4.23
2023-05-16T13:47:11.884Z,4.37
2023-05-16T13:49:39.047Z,4.07
2023-05-16T13:52:06.060Z,3.97
2023-05-16T13:54:32.740Z,3.83
2023-05-16T13:56:59.296Z,4.07
2023-05-16T13:59:45.699Z,4.00
2023-05-16T14:02:12.472Z,4.27
2023-05-16T14:04:39.181Z,4.13
2023-05-16T14:07:05.750Z,4.60
2023-05-16T14:09:35.032Z,4.50
2023-05-16T14:12:04.471Z,4.40
2023-05-16T14:14:31.983Z,4.67
2023-05-16T14:16:59.541Z,4.83
2023-05-16T14:19:26.214Z,4.83
2023-05-16T14:21:52.849Z,4.73
2023-05-16T14:24:19.438Z,4.53
2023-05-16T14:26:46.339Z,4.47
2023-05-16T14:29:13.518Z,4.70
2023-05-16T14:31:41.016Z,4.63
2023-05-16T14:34:07.641Z,4.20
2023-05-16T14:36:34.257Z,4.27
2023-05-16T14:39:00.929Z,4.27
2023-05-16T14:41:27.603Z,4.33
2023-05-16T14:43:54.903Z,4.30
2023-05-16T14:46:21.598Z,4.30
2023-05-16T14:48:48.165Z,3.67
2023-05-16T14:51:15.276Z,4.00
2023-05-16T14:53:41.837Z,4.17
2023-05-16T14:56:08.418Z,4.07
2023-05-16T14:58:34.993Z,4.00
2023-05-16T15:01:01.980Z,4.00
2023-05-16T15:03:28.705Z,4.00
2023-05-16T15:05:55.719Z,4.53
2023-05-16T15:08:22.363Z,4.73
2023-05-16T15:10:48.914Z,4.00
2023-05-16T15:13:15.572Z,3.73
2023-05-16T15:15:42.287Z,3.90
2023-05-16T15:18:10.661Z,4.00
2023-05-16T15:20:37.682Z,3.93
2023-05-16T15:23:04.291Z,4.23
2023-05-16T15:25:31.128Z,4.00
2023-05-16T15:27:57.812Z,4.00
2023-05-16T15:30:24.542Z,3.70
2023-05-16T15:32:51.225Z,3.60
2023-05-16T15:35:18.127Z,3.77
2023-05-16T15:37:44.705Z,3.90
2023-05-16T15:40:11.602Z,3.43
2023-05-16T15:42:38.264Z,3.77
2023-05-16T15:45:05.160Z,3.30
2023-05-16T15:47:31.973Z,3.47
2023-05-16T15:49:58.564Z,3.17
2023-05-16T15:52:25.166Z,3.27
2023-05-16T15:54:51.810Z,3.40
2023-05-16T15:57:19.225Z,2.90
2023-05-16T15:59:45.885Z,3.10
2023-05-16T16:02:12.559Z,3.50
2023-05-16T16:04:39.291Z,3.83
2023-05-16T16:07:05.967Z,3.80
2023-05-16T16:09:33.064Z,3.23
2023-05-16T16:11:59.639Z,3.10
2023-05-16T16:14:26.270Z,3.00
2023-05-16T16:16:52.880Z,2.93
2023-05-16T16:19:20.729Z,2.60
2023-05-16T16:21:47.389Z,2.70
2023-05-16T16:24:15.144Z,3.77
2023-05-16T16:26:42.111Z,4.13
2023-05-16T16:29:08.697Z,4.20
2023-05-16T16:31:35.621Z,3.03
2023-05-16T16:34:02.311Z,3.00
2023-05-16T16:36:29.059Z,3.17
2023-05-16T16:38:55.634Z,3.00
2023-05-16T16:41:22.317Z,3.23
2023-05-16T16:43:49.216Z,2.70
2023-05-16T16:46:15.848Z,2.87
2023-05-16T16:48:42.459Z,3.00
2023-05-16T16:51:09.070Z,2.73
2023-05-16T16:53:37.798Z,3.30
2023-05-16T16:56:04.868Z,3.00
2023-05-16T16:58:31.535Z,3.50
2023-05-16T17:00:58.342Z,3.40
2023-05-16T17:03:27.805Z,2.20
2023-05-16T17:05:54.599Z,2.50
2023-05-16T17:08:21.622Z,2.53
2023-05-16T17:10:48.289Z,2.67
2023-05-16T17:13:14.932Z,2.57
2023-05-16T17:15:44.062Z,2.87
2023-05-16T17:18:10.774Z,2.77
2023-05-16T17:20:37.529Z,2.40
2023-05-16T17:23:04.254Z,2.90
2023-05-16T17:25:31.159Z,2.60
2023-05-16T17:27:58.038Z,2.60
2023-05-16T17:30:24.719Z,2.47
2023-05-16T17:32:51.455Z,2.30
2023-05-16T17:35:18.344Z,2.10
2023-05-16T17:37:47.338Z,2.00
2023-05-16T17:40:17.003Z,2.07
2023-05-16T17:42:44.502Z,2.10
2023-05-16T17:45:11.854Z,2.30
2023-05-16T17:47:39.538Z,2.30
2023-05-16T17:50:09.414Z,1.93
2023-05-16T17:52:37.673Z,2.33
2023-05-16T17:55:05.278Z,2.40
2023-05-16T17:57:31.833Z,2.27
2023-05-16T17:59:58.466Z,1.83
2023-05-16T18:02:25.639Z,2.20
2023-05-16T18:04:52.813Z,2.23
2023-05-16T18:07:19.601Z,2.30
2023-05-16T18:09:46.194Z,2.50
2023-05-16T18:12:12.810Z,2.50
2023-05-16T18:14:39.527Z,2.10
2023-05-16T18:17:06.196Z,2.40
2023-05-16T18:19:32.954Z,2.57
2023-05-16T18:22:00.175Z,2.50
2023-05-16T18:24:26.759Z,2.20
2023-05-16T18:26:53.391Z,2.37
2023-05-16T18:29:21.478Z,2.37
2023-05-16T18:31:48.120Z,2.47
2023-05-16T18:34:14.693Z,2.20
2023-05-16T18:36:41.280Z,2.53
2023-05-16T18:39:08.892Z,2.60
2023-05-16T18:41:35.522Z,2.27
2023-05-16T18:44:02.049Z,2.60
2023-05-16T18:46:28.673Z,2.83
2023-05-16T18:48:57.834Z,2.40
2023-05-16T18:51:24.851Z,2.47
2023-05-16T18:53:51.493Z,2.57
2023-05-16T18:56:18.101Z,2.60
2023-05-16T18:58:44.650Z,2.70
2023-05-16T19:01:11.463Z,2.57
2023-05-16T19:03:38.178Z,2.70
2023-05-16T19:06:05.195Z,2.97
2023-05-16T19:08:46.470Z,3.00
2023-05-16T19:11:14.048Z,2.67
2023-05-16T19:13:40.669Z,3.53
2023-05-16T19:16:07.246Z,2.90
2023-05-16T19:18:35.214Z,3.17
2023-05-16T19:21:02.046Z,2.80
2023-05-16T19:23:28.642Z,2.97
2023-05-16T19:25:55.234Z,3.20
2023-05-16T19:28:21.824Z,3.10
2023-05-16T19:30:48.413Z,2.97
2023-05-16T19:33:15.087Z,3.03
2023-05-16T19:35:41.688Z,3.33
2023-05-16T19:38:08.311Z,2.90
2023-05-16T19:40:35.040Z,3.20
2023-05-16T19:43:01.639Z,3.37
2023-05-16T19:45:28.547Z,3.47
2023-05-16T19:47:55.391Z,3.20
2023-05-16T19:50:22.510Z,3.20
2023-05-16T19:52:49.077Z,3.70
2023-05-16T19:55:15.762Z,3.87
2023-05-16T19:57:42.432Z,3.43
2023-05-16T20:00:09.649Z,3.30
2023-05-16T20:02:43.192Z,3.07
2023-05-16T20:05:10.232Z,4.27
2023-05-16T20:07:37.003Z,3.50
2023-05-16T20:10:03.666Z,3.30
2023-05-16T20:12:30.343Z,3.70
2023-05-16T20:14:56.939Z,4.00
2023-05-16T20:17:23.514Z,3.93
2023-05-16T20:19:50.206Z,3.47
2023-05-16T20:22:17.229Z,4.13
2023-05-16T20:24:43.901Z,3.47
2023-05-16T20:27:10.674Z,3.43
2023-05-16T20:29:37.364Z,3.30
2023-05-16T20:32:04.102Z,3.90
2023-05-16T20:34:33.642Z,3.13
2023-05-16T20:37:00.321Z,3.80
2023-05-16T20:39:27.008Z,3.60
2023-05-16T20:41:53.654Z,3.37
2023-05-16T20:44:20.832Z,3.70
2023-05-16T20:46:47.607Z,5.20
2023-05-16T20:49:14.228Z,4.20
2023-05-16T20:51:40.801Z,4.27
2023-05-16T20:54:07.762Z,5.83
2023-05-16T20:56:34.333Z,4.80
2023-05-16T20:59:00.976Z,4.40
2023-05-16T21:01:27.628Z,4.80
2023-05-16T21:03:54.281Z,4.87
2023-05-16T21:06:21.069Z,4.47
2023-05-16T21:08:47.715Z,4.20
2023-05-16T21:11:14.304Z,4.27
2023-05-16T21:13:40.924Z,4.30
2023-05-16T21:16:07.679Z,4.13
2023-05-16T21:18:34.446Z,3.70
2023-05-16T21:21:01.124Z,3.60
2023-05-16T21:23:27.820Z,3.70
2023-05-16T21:25:54.427Z,3.67
2023-05-16T21:28:21.238Z,3.40
2023-05-16T21:30:48.485Z,3.97
2023-05-16T21:33:15.128Z,3.27
2023-05-16T21:35:41.856Z,3.20
2023-05-16T21:38:08.471Z,2.60
2023-05-16T21:40:35.107Z,3.10
2023-05-16T21:43:01.979Z,3.10
2023-05-16T21:45:28.806Z,2.80
2023-05-16T21:47:55.738Z,2.80
2023-05-16T21:50:22.484Z,3.03
2023-05-16T21:52:49.095Z,2.67
2023-05-16T21:55:15.845Z,2.40
2023-05-16T21:57:42.444Z,2.50
2023-05-16T22:00:09.962Z,2.23
2023-05-16T22:02:36.887Z,2.20
2023-05-16T22:05:04.075Z,2.03
2023-05-16T22:07:31.692Z,2.50
2023-05-16T22:09:59.149Z,2.10
2023-05-16T22:12:26.676Z,2.10
2023-05-16T22:14:54.149Z,2.10
2023-05-16T22:17:20.821Z,2.50
2023-05-16T22:19:47.700Z,2.07
2023-05-16T22:22:14.430Z,1.93
2023-05-16T22:24:41.137Z,1.73
2023-05-16T22:27:07.831Z,1.90
2023-05-16T22:29:38.276Z,2.03
2023-05-16T22:32:08.672Z,2.00
2023-05-16T22:34:35.913Z,1.87
2023-05-16T22:37:02.715Z,1.80
2023-05-16T22:39:29.274Z,1.83
2023-05-16T22:41:55.923Z,1.60
2023-05-16T22:44:22.517Z,1.53
2023-05-16T22:46:49.168Z,1.70
2023-05-16T22:49:16.380Z,1.70
2023-05-16T22:51:43.081Z,1.53
2023-05-16T22:54:09.714Z,1.67
2023-05-16T22:56:36.307Z,1.60
2023-05-16T22:59:03.059Z,1.60
2023-05-16T23:01:29.653Z,1.37
2023-05-16T23:03:56.363Z,1.40
2023-05-16T23:06:23.104Z,1.60
2023-05-16T23:08:49.668Z,1.60
2023-05-16T23:11:16.224Z,1.43
2023-05-16T23:13:42.786Z,1.50
2023-05-16T23:16:09.498Z,1.30
2023-05-16T23:18:36.267Z,1.60
2023-05-16T23:21:03.665Z,1.60
2023-05-16T23:23:30.527Z,1.30
2023-05-16T23:25:57.232Z,1.50
2023-05-16T23:28:23.926Z,1.57
2023-05-16T23:30:50.538Z,1.30
2023-05-16T23:33:17.230Z,1.43
2023-05-16T23:35:43.813Z,1.70
2023-05-16T23:38:10.393Z,1.37
2023-05-16T23:40:37.028Z,1.30
2023-05-16T23:43:03.661Z,1.53
2023-05-16T23:45:30.408Z,1.30
2023-05-16T23:47:57.228Z,1.53
2023-05-16T23:50:23.913Z,1.30
2023-05-16T23:52:50.513Z,1.20
2023-05-16T23:55:17.158Z,1.07
2023-05-16T23:57:43.757Z,1.20
